createdAt,value
2018-09-28T00:00:46.939Z,52.22
2018-09-28T00:05:51.130Z,52.69
2018-09-28T00:10:55.332Z,53.30
2018-09-28T00:15:59.506Z,53.68
2018-09-28T00:21:03.724Z,52.68
2018-09-28T00:26:08.059Z,51.83
2018-09-28T00:31:12.455Z,53.29
2018-09-28T00:36:16.666Z,53.49
2018-09-28T00:41:20.798Z,53.33
2018-09-28T00:46:24.999Z,51.37
2018-09-28T00:51:29.231Z,51.41
2018-09-28T00:56:33.438Z,51.68
2018-09-28T01:01:37.667Z,52.20
2018-09-28T01:06:41.908Z,51.72
2018-09-28T01:11:46.659Z,52.35
2018-09-28T01:16:51.797Z,53.87
2018-09-28T01:21:56.150Z,53.87
2018-09-28T01:27:00.351Z,54.13
2018-09-28T01:32:04.628Z,52.58
2018-09-28T01:37:08.999Z,53.78
2018-09-28T01:42:13.219Z,53.46
2018-09-28T01:47:17.759Z,53.76
2018-09-28T01:52:21.931Z,53.35
2018-09-28T01:57:26.440Z,53.79
2018-09-28T02:02:30.830Z,54.14
2018-09-28T02:07:35.065Z,54.91
2018-09-28T02:12:39.310Z,54.74
2018-09-28T02:17:43.595Z,54.95
2018-09-28T02:22:47.843Z,55.83
2018-09-28T02:27:52.061Z,55.88
2018-09-28T02:32:56.286Z,55.88
2018-09-28T02:38:00.434Z,56.61
2018-09-28T02:43:04.567Z,57.12
2018-09-28T02:48:08.825Z,56.95
2018-09-28T02:53:18.489Z,57.22
2018-09-28T02:58:22.612Z,56.80
2018-09-28T03:03:26.823Z,57.03
2018-09-28T03:08:30.951Z,56.79
2018-09-28T03:13:35.211Z,56.46
2018-09-28T03:18:39.403Z,56.95
2018-09-28T03:23:43.533Z,56.53
2018-09-28T03:28:48.249Z,55.00
2018-09-28T03:33:52.436Z,54.98
2018-09-28T03:38:56.669Z,55.13
2018-09-28T03:44:00.910Z,55.11
2018-09-28T03:49:05.512Z,55.81
2018-09-28T03:54:10.053Z,56.18
2018-09-28T03:59:14.321Z,55.70
2018-09-28T04:04:18.637Z,56.54
2018-09-28T04:09:23.293Z,56.44
2018-09-28T04:14:27.529Z,57.19
2018-09-28T04:19:31.876Z,57.50
2018-09-28T04:24:36.067Z,57.09
2018-09-28T04:29:40.303Z,57.84
2018-09-28T04:34:44.703Z,57.19
2018-09-28T04:39:48.982Z,56.96
2018-09-28T04:44:53.250Z,57.55
2018-09-28T04:49:57.578Z,58.30
2018-09-28T04:55:01.803Z,58.13
2018-09-28T05:00:05.999Z,58.76
2018-09-28T05:05:10.160Z,59.62
2018-09-28T05:10:14.698Z,60.30
2018-09-28T05:15:18.937Z,60.35
2018-09-28T05:20:23.139Z,60.40
2018-09-28T05:25:27.477Z,60.90
2018-09-28T05:30:31.590Z,61.54
2018-09-28T05:35:35.886Z,61.41
2018-09-28T05:40:40.816Z,61.56
2018-09-28T05:45:45.049Z,60.70
2018-09-28T05:50:49.419Z,60.39
2018-09-28T05:55:53.793Z,61.21
2018-09-28T06:01:03.482Z,61.00
2018-09-28T06:06:08.051Z,60.77
2018-09-28T06:11:13.379Z,61.83
2018-09-28T06:16:17.705Z,61.44
2018-09-28T06:21:21.920Z,61.00
2018-09-28T06:26:26.330Z,60.71
2018-09-28T06:31:30.634Z,61.82
2018-09-28T06:36:34.917Z,59.03
2018-09-28T06:41:39.303Z,59.39
2018-09-28T06:46:44.310Z,59.75
2018-09-28T06:51:48.718Z,58.84
2018-09-28T06:56:53.411Z,58.32
2018-09-28T07:01:58.020Z,59.16
2018-09-28T07:07:02.805Z,59.36
2018-09-28T07:12:07.231Z,59.46
2018-09-28T07:17:11.566Z,59.42
2018-09-28T07:22:16.184Z,59.85
2018-09-28T07:27:21.483Z,60.90
2018-09-28T07:32:26.127Z,59.71
2018-09-28T07:37:32.022Z,59.47
2018-09-28T07:42:36.722Z,59.06
2018-09-28T07:47:41.413Z,59.10
2018-09-28T07:52:46.299Z,59.64
2018-09-28T07:57:50.777Z,59.68
2018-09-28T08:02:55.123Z,60.17
2018-09-28T08:08:00.237Z,61.39
2018-09-28T08:13:05.295Z,62.42
2018-09-28T08:18:09.705Z,63.67
2018-09-28T08:23:14.129Z,68.77
2018-09-28T08:28:18.474Z,73.67
2018-09-28T08:33:22.835Z,76.67
2018-09-28T08:38:27.195Z,80.25
2018-09-28T08:43:31.918Z,82.50
2018-09-28T08:48:36.303Z,83.78
2018-09-28T08:53:40.545Z,86.24
2018-09-28T08:58:45.054Z,87.92
2018-09-28T09:03:49.490Z,88.00
2018-09-28T09:08:53.876Z,88.38
2018-09-28T09:13:58.444Z,87.61
2018-09-28T09:19:03.036Z,87.96
2018-09-28T09:24:07.689Z,87.95
2018-09-28T09:29:12.217Z,87.42
2018-09-28T09:34:16.594Z,87.90
2018-09-28T09:39:20.774Z,88.58
2018-09-28T09:44:25.342Z,89.11
2018-09-28T09:49:29.911Z,88.73
2018-09-28T09:54:34.258Z,88.99
2018-09-28T09:59:39.044Z,88.72
2018-09-28T10:04:45.164Z,87.39
2018-09-28T10:09:49.667Z,87.27
2018-09-28T10:14:54.375Z,86.85
2018-09-28T10:19:58.617Z,87.53
2018-09-28T10:25:03.159Z,87.54
2018-09-28T10:30:07.698Z,87.42
2018-09-28T10:35:12.906Z,88.56
2018-09-28T10:40:17.266Z,87.71
2018-09-28T10:45:21.568Z,87.27
2018-09-28T10:50:26.053Z,85.91
2018-09-28T10:55:30.371Z,84.89
2018-09-28T11:00:34.769Z,85.95
2018-09-28T11:05:39.222Z,85.23
2018-09-28T11:10:43.832Z,83.72
2018-09-28T11:15:48.006Z,81.74
2018-09-28T11:20:53.400Z,81.60
2018-09-28T11:25:59.185Z,76.82
2018-09-28T11:31:03.552Z,68.09
2018-09-28T11:36:08.439Z,65.13
2018-09-28T11:41:13.393Z,63.89
2018-09-28T11:46:18.014Z,60.96
2018-09-28T11:51:22.296Z,59.30
2018-09-28T11:56:26.787Z,58.23
2018-09-28T12:01:31.239Z,58.68
2018-09-28T12:06:36.897Z,54.44
2018-09-28T12:11:41.634Z,51.16
2018-09-28T12:16:46.023Z,50.10
2018-09-28T12:21:50.396Z,48.86
2018-09-28T12:26:54.634Z,47.77
2018-09-28T12:31:59.229Z,47.95
2018-09-28T12:37:09.769Z,48.33
2018-09-28T12:42:14.043Z,48.95
2018-09-28T12:47:18.288Z,49.38
2018-09-28T12:52:22.786Z,51.05
2018-09-28T12:57:27.405Z,50.07
2018-09-28T13:02:31.810Z,49.76
2018-09-28T13:07:36.294Z,48.10
2018-09-28T13:12:40.802Z,47.66
2018-09-28T13:17:45.178Z,46.66
2018-09-28T13:22:49.598Z,47.55
2018-09-28T13:27:53.962Z,47.48
2018-09-28T13:32:58.364Z,46.26
2018-09-28T13:38:02.902Z,45.53
2018-09-28T13:43:07.542Z,44.41
2018-09-28T13:48:13.981Z,44.79
2018-09-28T13:53:18.462Z,44.34
2018-09-28T13:58:23.790Z,45.05
2018-09-28T14:03:29.297Z,45.30
2018-09-28T14:08:34.021Z,46.50
2018-09-28T14:13:38.826Z,47.30
2018-09-28T14:18:43.631Z,46.12
2018-09-28T14:23:48.706Z,45.75
2018-09-28T14:28:53.300Z,45.01
2018-09-28T14:33:57.798Z,45.70
2018-09-28T14:39:02.227Z,45.60
2018-09-28T14:44:07.176Z,45.80
2018-09-28T14:49:12.387Z,45.65
2018-09-28T14:54:17.552Z,44.75
2018-09-28T15:00:51.416Z,44.78
2018-09-28T15:05:56.126Z,44.36
2018-09-28T15:11:01.297Z,42.42
2018-09-28T15:16:05.969Z,42.75
2018-09-28T15:21:10.378Z,42.42
2018-09-28T15:26:15.536Z,42.75
2018-09-28T15:32:49.486Z,42.29
2018-09-28T15:37:54.024Z,43.23
2018-09-28T15:42:58.308Z,42.82
2018-09-28T15:48:02.563Z,43.62
2018-09-28T15:53:06.934Z,43.87
2018-09-28T15:58:11.126Z,42.24
2018-09-28T16:03:16.475Z,40.98
2018-09-28T16:08:20.730Z,39.50
2018-09-28T16:13:25.044Z,39.02
2018-09-28T16:18:29.528Z,39.13
2018-09-28T16:23:34.652Z,39.90
2018-09-28T16:28:39.039Z,40.94
2018-09-28T16:33:43.559Z,41.83
2018-09-28T16:38:50.653Z,42.54
2018-09-28T16:43:55.014Z,42.82
2018-09-28T16:49:05.063Z,43.49
2018-09-28T16:54:09.380Z,44.77
2018-09-28T16:59:13.898Z,43.93
2018-09-28T17:04:18.378Z,42.96
2018-09-28T17:09:22.895Z,42.71
2018-09-28T17:14:27.120Z,43.34
2018-09-28T17:19:31.672Z,43.61
2018-09-28T17:24:36.280Z,44.12
2018-09-28T17:29:40.514Z,44.04
2018-09-28T17:34:45.662Z,44.46
2018-09-28T17:45:05.701Z,45.21
2018-09-28T17:50:10.104Z,46.01
2018-09-28T17:55:15.014Z,46.27
2018-09-28T18:00:19.654Z,46.36
2018-09-28T18:05:24.259Z,47.37
2018-09-28T18:10:29.192Z,47.89
2018-09-28T18:15:33.657Z,48.11
2018-09-28T18:20:42.933Z,47.56
2018-09-28T18:25:47.479Z,48.21
2018-09-28T18:30:52.129Z,48.63
2018-09-28T18:35:56.643Z,49.02
2018-09-28T18:41:06.630Z,49.11
2018-09-28T18:46:10.822Z,49.85
2018-09-28T18:51:15.308Z,50.18
2018-09-28T18:56:19.647Z,50.73
2018-09-28T19:01:23.861Z,50.92
2018-09-28T19:06:28.217Z,50.88
2018-09-28T19:11:32.740Z,50.88
2018-09-28T19:16:37.309Z,52.01
2018-09-28T19:21:42.712Z,52.60
2018-09-28T19:26:47.085Z,52.65
2018-09-28T19:31:51.737Z,53.14
2018-09-28T19:36:56.155Z,53.46
2018-09-28T19:42:00.507Z,54.27
2018-09-28T19:47:04.833Z,54.71
2018-09-28T19:52:09.321Z,55.46
2018-09-28T19:57:14.710Z,55.55
2018-09-28T20:02:19.665Z,56.00
2018-09-28T20:07:24.121Z,56.24
2018-09-28T20:12:28.537Z,56.27
2018-09-28T20:17:33.256Z,55.86
2018-09-28T20:22:38.052Z,56.29
2018-09-28T20:27:42.984Z,57.12
2018-09-28T20:32:47.539Z,56.22
2018-09-28T20:37:52.124Z,56.95
2018-09-28T20:42:56.968Z,57.31
2018-09-28T20:48:01.567Z,57.34
2018-09-28T20:53:06.256Z,57.64
2018-09-28T20:58:10.744Z,57.54
2018-09-28T21:03:15.160Z,57.64
2018-09-28T21:08:19.553Z,58.02
2018-09-28T21:13:23.864Z,58.07
2018-09-28T21:18:28.180Z,58.03
2018-09-28T21:23:32.550Z,58.26
2018-09-28T21:28:36.848Z,57.45
2018-09-28T21:33:41.135Z,58.46
2018-09-28T21:38:45.493Z,59.22
2018-09-28T21:43:49.722Z,59.05
2018-09-28T21:48:53.994Z,59.65
2018-09-28T21:53:58.272Z,59.31
2018-09-28T21:59:02.623Z,59.45
2018-09-28T22:04:06.903Z,59.31
2018-09-28T22:09:11.301Z,60.02
2018-09-28T22:14:15.746Z,59.52
2018-09-28T22:19:19.981Z,59.50
2018-09-28T22:24:24.996Z,59.19
2018-09-28T22:29:30.163Z,59.67
2018-09-28T22:34:36.120Z,59.98
2018-09-28T22:39:40.673Z,60.11
2018-09-28T22:44:44.825Z,60.02
2018-09-28T22:49:54.195Z,60.46
2018-09-28T22:54:58.515Z,61.12
2018-09-28T23:00:03.057Z,61.31
2018-09-28T23:05:07.788Z,61.43
2018-09-28T23:10:12.047Z,61.42
2018-09-28T23:15:16.373Z,61.57
2018-09-28T23:20:20.655Z,61.73
2018-09-28T23:25:24.930Z,62.31
2018-09-28T23:30:29.155Z,62.43
2018-09-28T23:35:33.295Z,62.61
2018-09-28T23:40:37.543Z,62.44
2018-09-28T23:45:41.837Z,62.93
2018-09-28T23:50:46.373Z,63.23
2018-09-28T23:55:50.467Z,63.23
